Time;durP1;ratioP1;P1;durP2;ratioP2;P2;SDS_P1;SDS_P2;PMS_P1;PMS_P2;Temp;Humidity;BMP_temperature;BMP_pressure;BME280_temperature;BME280_humidity;BME280_pressure;Samples;Min_cycle;Max_cycle;Signal;HPM_P1;HPM_P2
2022/02/16 00:00:46;;;;;;;;;;;24.30;41.90;;;;;;1482132;80;733;-72
2022/02/16 00:02:48;;;;;;;;;;;24.30;41.90;;;;;;1480077;80;631;-72
2022/02/16 00:04:50;;;;;;;;;;;24.30;41.90;;;;;;1480245;80;1151;-72
2022/02/16 00:06:52;;;;;;;;;;;24.30;41.80;;;;;;1480406;79;740;-71
2022/02/16 00:08:54;;;;;;;;;;;24.40;42.00;;;;;;1484670;80;581;-71
2022/02/16 00:10:56;;;;;;;;;;;24.30;42.00;;;;;;1484829;79;633;-68
2022/02/16 00:12:58;;;;;;;;;;;24.40;42.00;;;;;;1484675;80;674;-69
2022/02/16 00:14:59;;;;;;;;;;;24.30;42.00;;;;;;1484777;80;1143;-65
2022/02/16 00:17:01;;;;;;;;;;;24.30;42.00;;;;;;1483818;79;1938;-69
2022/02/16 00:19:03;;;;;;;;;;;24.30;42.00;;;;;;1483976;79;620;-69
2022/02/16 00:21:05;;;;;;;;;;;24.30;42.10;;;;;;1439772;81;826;-69
2022/02/16 00:23:07;;;;;;;;;;;24.30;42.10;;;;;;1436289;83;792;-71
2022/02/16 00:25:09;;;;;;;;;;;24.30;42.10;;;;;;1467209;79;1172;-70
2022/02/16 00:27:11;;;;;;;;;;;24.30;42.20;;;;;;1494240;79;785;-72
2022/02/16 00:29:13;;;;;;;;;;;24.30;42.20;;;;;;1485792;79;738;-72
2022/02/16 00:31:15;;;;;;;;;;;24.30;42.30;;;;;;1485356;79;717;-71
2022/02/16 00:33:17;;;;;;;;;;;24.30;42.30;;;;;;1494341;79;709;-70
2022/02/16 00:35:19;;;;;;;;;;;24.30;42.30;;;;;;1494119;79;1182;-71
2022/02/16 00:37:21;;;;;;;;;;;24.20;42.20;;;;;;1490766;79;1946;-71
2022/02/16 00:39:23;;;;;;;;;;;24.30;42.30;;;;;;1484772;79;787;-70
2022/02/16 00:41:25;;;;;;;;;;;24.30;42.30;;;;;;1484713;80;650;-72
2022/02/16 00:43:26;;;;;;;;;;;24.30;42.40;;;;;;1484836;80;724;-71
2022/02/16 00:45:31;;;;;;;;;;;24.20;42.30;;;;;;1483654;79;1165;-71
2022/02/16 00:47:33;;;;;;;;;;;24.20;42.30;;;;;;1484629;79;1643;-68
2022/02/16 00:49:35;;;;;;;;;;;24.30;42.50;;;;;;1483275;79;824;-71
2022/02/16 00:51:38;;;;;;;;;;;24.30;42.50;;;;;;1484693;80;731;-70
2022/02/16 00:53:40;;;;;;;;;;;24.30;42.60;;;;;;1484692;80;743;-69
2022/02/16 00:55:42;;;;;;;;;;;24.20;42.50;;;;;;1484738;80;1107;-70
2022/02/16 00:57:43;;;;;;;;;;;24.30;42.60;;;;;;1483780;79;1962;-72
2022/02/16 00:59:45;;;;;;;;;;;24.20;42.50;;;;;;1484527;79;797;-71
2022/02/16 01:01:47;;;;;;;;;;;24.30;42.70;;;;;;1456377;81;749;-70
2022/02/16 01:03:49;;;;;;;;;;;24.30;42.60;;;;;;1454603;81;727;-71
2022/02/16 01:05:51;;;;;;;;;;;24.30;42.60;;;;;;1456300;81;1156;-70
2022/02/16 01:07:53;;;;;;;;;;;24.30;42.60;;;;;;1459091;80;718;-71
2022/02/16 01:09:55;;;;;;;;;;;24.20;42.50;;;;;;1462570;80;691;-70
2022/02/16 01:11:56;;;;;;;;;;;24.20;42.50;;;;;;1481375;80;733;-70
2022/02/16 01:13:58;;;;;;;;;;;24.30;42.60;;;;;;1485992;80;723;-71
2022/02/16 01:16:00;;;;;;;;;;;24.20;42.40;;;;;;1478045;80;1166;-70
2022/02/16 01:18:02;;;;;;;;;;;24.30;42.60;;;;;;1477180;80;1909;-71
2022/02/16 01:20:05;;;;;;;;;;;24.20;42.60;;;;;;1476876;80;715;-69
2022/02/16 01:22:06;;;;;;;;;;;24.20;42.60;;;;;;1489832;80;782;-71
2022/02/16 01:24:08;;;;;;;;;;;24.20;42.60;;;;;;1489878;80;727;-72
2022/02/16 01:26:12;;;;;;;;;;;24.20;42.50;;;;;;1496333;79;1098;-70
2022/02/16 01:28:14;;;;;;;;;;;24.20;42.60;;;;;;1492901;78;683;-71
2022/02/16 01:30:15;;;;;;;;;;;24.20;42.60;;;;;;1489777;79;871;-74
2022/02/16 01:32:17;;;;;;;;;;;24.10;42.60;;;;;;1489783;80;728;-71
2022/02/16 01:34:19;;;;;;;;;;;24.20;42.60;;;;;;1489782;80;728;-73
2022/02/16 01:36:21;;;;;;;;;;;24.20;42.70;;;;;;1488658;79;1166;-72
2022/02/16 01:38:23;;;;;;;;;;;24.20;42.70;;;;;;1489740;79;1955;-72
2022/02/16 01:40:25;;;;;;;;;;;24.20;42.70;;;;;;1489854;80;684;-72
2022/02/16 01:42:27;;;;;;;;;;;24.10;42.80;;;;;;1489832;79;659;-72
2022/02/16 01:44:30;;;;;;;;;;;24.20;42.70;;;;;;1489047;79;705;-72
2022/02/16 01:46:33;;;;;;;;;;;24.10;42.70;;;;;;1489566;79;1146;-72
2022/02/16 01:48:35;;;;;;;;;;;24.10;42.70;;;;;;1489822;80;813;-72
2022/02/16 01:50:37;;;;;;;;;;;24.10;42.80;;;;;;1488983;79;728;-72
2022/02/16 01:52:39;;;;;;;;;;;24.10;42.80;;;;;;1489834;80;743;-72
2022/02/16 01:54:41;;;;;;;;;;;24.10;42.80;;;;;;1489908;79;728;-71
2022/02/16 01:56:43;;;;;;;;;;;24.10;42.80;;;;;;1490014;79;1946;-70
2022/02/16 01:58:45;;;;;;;;;;;24.10;42.80;;;;;;1513387;78;715;-70
2022/02/16 02:00:47;;;;;;;;;;;24.10;42.80;;;;;;1517991;78;807;-70
2022/02/16 02:02:49;;;;;;;;;;;24.10;42.80;;;;;;1518080;78;1073;-70
2022/02/16 02:04:51;;;;;;;;;;;24.10;42.90;;;;;;1517749;78;1156;-66
2022/02/16 02:06:53;;;;;;;;;;;24.10;42.90;;;;;;1490751;78;707;-69
2022/02/16 02:08:55;;;;;;;;;;;24.10;42.90;;;;;;1485695;80;772;-70
2022/02/16 02:10:57;;;;;;;;;;;24.10;42.90;;;;;;1484944;80;716;-70
2022/02/16 02:12:59;;;;;;;;;;;24.10;42.90;;;;;;1484955;80;735;-70
2022/02/16 02:15:01;;;;;;;;;;;24.10;42.90;;;;;;1487873;79;1138;-70
2022/02/16 02:17:03;;;;;;;;;;;24.10;42.90;;;;;;1489777;79;1934;-70
2022/02/16 02:19:05;;;;;;;;;;;24.10;42.90;;;;;;1488953;79;655;-70
2022/02/16 02:21:07;;;;;;;;;;;24.10;42.90;;;;;;1489675;80;706;-70
2022/02/16 02:23:09;;;;;;;;;;;24.10;43.00;;;;;;1489816;79;760;-72
2022/02/16 02:25:11;;;;;;;;;;;24.10;43.10;;;;;;1491594;79;1125;-72
2022/02/16 02:27:13;;;;;;;;;;;24.10;43.10;;;;;;1483425;79;746;-70
2022/02/16 02:29:15;;;;;;;;;;;24.10;43.10;;;;;;1470969;80;712;-70
2022/02/16 02:31:17;;;;;;;;;;;24.10;43.10;;;;;;1459062;81;737;-70
2022/02/16 02:33:18;;;;;;;;;;;24.10;43.10;;;;;;1459068;81;743;-69
2022/02/16 02:35:20;;;;;;;;;;;24.10;43.10;;;;;;1458931;80;1196;-71
2022/02/16 02:37:22;;;;;;;;;;;24.10;43.10;;;;;;1459089;81;1956;-72
2022/02/16 02:39:24;;;;;;;;;;;24.20;43.10;;;;;;1458816;81;823;-71
2022/02/16 02:41:26;;;;;;;;;;;24.10;43.10;;;;;;1484760;80;608;-69
2022/02/16 02:43:28;;;;;;;;;;;24.10;43.10;;;;;;1484708;80;741;-69
2022/02/16 02:45:30;;;;;;;;;;;24.10;43.10;;;;;;1484771;80;1177;-70
2022/02/16 02:47:32;;;;;;;;;;;24.20;43.10;;;;;;1484030;79;798;-69
2022/02/16 02:49:35;;;;;;;;;;;24.10;43.10;;;;;;1483875;79;718;-70
2022/02/16 02:51:37;;;;;;;;;;;24.20;43.10;;;;;;1484738;80;590;-70
2022/02/16 02:53:39;;;;;;;;;;;24.10;43.10;;;;;;1489630;76;2111;-69
2022/02/16 02:55:41;;;;;;;;;;;24.10;43.10;;;;;;1469362;79;733;-69
2022/02/16 02:57:43;;;;;;;;;;;24.10;43.10;;;;;;1479335;78;1936;-69
2022/02/16 02:59:44;;;;;;;;;;;24.00;43.00;;;;;;1479470;80;774;-69
2022/02/16 03:01:46;;;;;;;;;;;24.10;43.10;;;;;;1488918;77;708;-69
2022/02/16 03:03:48;;;;;;;;;;;24.10;43.10;;;;;;1526205;78;1180;-69
2022/02/16 03:05:50;;;;;;;;;;;24.10;43.10;;;;;;1529000;77;720;-69
2022/02/16 03:07:52;;;;;;;;;;;24.10;43.10;;;;;;1529255;77;793;-71
2022/02/16 03:09:54;;;;;;;;;;;24.10;43.10;;;;;;1530904;76;747;-70
2022/02/16 03:11:56;;;;;;;;;;;24.10;43.20;;;;;;1524317;76;806;-70
2022/02/16 03:13:57;;;;;;;;;;;24.00;43.00;;;;;;1515205;78;1127;-72
2022/02/16 03:15:59;;;;;;;;;;;24.10;43.20;;;;;;1515011;78;720;-70
2022/02/16 03:18:01;;;;;;;;;;;24.00;43.10;;;;;;1517438;76;1940;-71
2022/02/16 03:20:04;;;;;;;;;;;24.10;43.20;;;;;;1528767;76;693;-70
2022/02/16 03:22:05;;;;;;;;;;;24.10;43.20;;;;;;1529155;78;1131;-70
2022/02/16 03:24:07;;;;;;;;;;;24.10;43.20;;;;;;1529158;78;665;-70
2022/02/16 03:26:10;;;;;;;;;;;24.10;43.20;;;;;;1525151;76;690;-70
2022/02/16 03:28:12;;;;;;;;;;;24.00;43.20;;;;;;1533377;76;741;-72
2022/02/16 03:30:14;;;;;;;;;;;24.00;43.10;;;;;;1530059;76;735;-71
2022/02/16 03:32:16;;;;;;;;;;;24.20;43.20;;;;;;1548908;76;1116;-71
2022/02/16 03:34:17;;;;;;;;;;;24.20;43.20;;;;;;1545888;77;738;-73
2022/02/16 03:36:19;;;;;;;;;;;24.10;43.20;;;;;;1543648;76;761;-70
2022/02/16 03:38:21;;;;;;;;;;;24.20;43.20;;;;;;1529156;78;1932;-70
2022/02/16 03:40:23;;;;;;;;;;;24.20;43.10;;;;;;1529116;77;707;-70
2022/02/16 03:42:25;;;;;;;;;;;24.30;43.10;;;;;;1529232;78;1127;-70
2022/02/16 03:44:27;;;;;;;;;;;24.30;43.10;;;;;;1534100;77;789;-71
2022/02/16 03:46:29;;;;;;;;;;;24.30;43.00;;;;;;1537753;76;667;-71
2022/02/16 03:48:30;;;;;;;;;;;24.40;42.90;;;;;;1529254;78;721;-72
2022/02/16 03:50:32;;;;;;;;;;;24.50;42.90;;;;;;1528803;76;715;-72
2022/02/16 03:52:34;;;;;;;;;;;24.40;42.80;;;;;;1529189;77;1117;-71
2022/02/16 03:54:36;;;;;;;;;;;24.40;42.70;;;;;;1529288;77;784;-72
2022/02/16 03:56:38;;;;;;;;;;;24.40;42.80;;;;;;1540061;76;732;-75
2022/02/16 03:58:40;;;;;;;;;;;24.50;42.90;;;;;;1539253;76;1951;-70
2022/02/16 04:00:42;;;;;;;;;;;24.50;42.80;;;;;;1530433;76;731;-72
2022/02/16 04:02:44;;;;;;;;;;;24.50;42.90;;;;;;1540927;76;1157;-72
2022/02/16 04:04:45;;;;;;;;;;;24.50;42.90;;;;;;1528998;78;717;-72
2022/02/16 04:06:47;;;;;;;;;;;24.50;42.90;;;;;;1528824;78;734;-71
2022/02/16 04:08:49;;;;;;;;;;;24.60;42.90;;;;;;1528480;76;752;-71
2022/02/16 04:10:51;;;;;;;;;;;24.50;42.80;;;;;;1529169;78;734;-70
2022/02/16 04:12:53;;;;;;;;;;;24.60;42.90;;;;;;1529084;78;1120;-70
2022/02/16 04:14:55;;;;;;;;;;;24.60;42.80;;;;;;1529222;78;873;-76
2022/02/16 04:16:57;;;;;;;;;;;24.60;42.80;;;;;;1528730;78;805;-70
2022/02/16 04:18:59;;;;;;;;;;;24.60;42.80;;;;;;1528403;76;1948;-70
2022/02/16 04:21:01;;;;;;;;;;;24.60;42.70;;;;;;1491306;80;747;-71
2022/02/16 04:23:04;;;;;;;;;;;24.50;42.70;;;;;;1468292;80;1175;-74
2022/02/16 04:25:06;;;;;;;;;;;24.60;42.70;;;;;;1471780;80;716;-71
2022/02/16 04:27:08;;;;;;;;;;;24.60;42.70;;;;;;1528031;77;696;-71
2022/02/16 04:29:10;;;;;;;;;;;24.60;42.60;;;;;;1507372;77;735;-72
2022/02/16 04:31:11;;;;;;;;;;;24.60;42.70;;;;;;1499863;78;667;-71
2022/02/16 04:33:13;;;;;;;;;;;24.60;42.80;;;;;;1470449;79;1095;-75
2022/02/16 04:35:15;;;;;;;;;;;24.50;42.80;;;;;;1492461;79;752;-73
2022/02/16 04:37:17;;;;;;;;;;;24.50;42.80;;;;;;1494143;78;732;-73
2022/02/16 04:39:19;;;;;;;;;;;24.50;42.70;;;;;;1494253;79;1949;-73
2022/02/16 04:41:21;;;;;;;;;;;24.60;42.70;;;;;;1494063;79;719;-72
2022/02/16 04:43:23;;;;;;;;;;;24.60;42.70;;;;;;1494243;79;1118;-73
2022/02/16 04:45:24;;;;;;;;;;;24.60;42.70;;;;;;1493413;78;768;-72
2022/02/16 04:47:26;;;;;;;;;;;24.60;42.60;;;;;;1494100;79;760;-71
2022/02/16 04:49:28;;;;;;;;;;;24.60;42.70;;;;;;1493490;78;769;-73
2022/02/16 04:51:30;;;;;;;;;;;24.60;42.60;;;;;;1494249;79;766;-72
2022/02/16 04:53:35;;;;;;;;;;;24.60;42.60;;;;;;1481636;79;1123;-72
2022/02/16 04:55:36;;;;;;;;;;;24.70;42.70;;;;;;1494364;79;684;-71
2022/02/16 04:57:38;;;;;;;;;;;24.60;42.60;;;;;;1494362;79;713;-71
2022/02/16 04:59:40;;;;;;;;;;;24.60;42.70;;;;;;1482257;78;1979;-71
2022/02/16 05:01:43;;;;;;;;;;;24.60;42.80;;;;;;1494454;79;771;-71
2022/02/16 05:03:44;;;;;;;;;;;24.60;42.80;;;;;;1494208;79;1097;-71
2022/02/16 05:05:46;;;;;;;;;;;24.60;42.80;;;;;;1494469;79;730;-71
2022/02/16 05:07:48;;;;;;;;;;;24.60;42.80;;;;;;1494340;78;717;-71
2022/02/16 05:09:50;;;;;;;;;;;24.50;42.80;;;;;;1494346;79;735;-71
2022/02/16 05:11:52;;;;;;;;;;;24.60;42.90;;;;;;1491062;79;735;-71
2022/02/16 05:13:54;;;;;;;;;;;24.60;42.80;;;;;;1478821;79;1125;-74
2022/02/16 05:15:56;;;;;;;;;;;24.60;42.70;;;;;;1468981;81;649;-73
2022/02/16 05:17:59;;;;;;;;;;;24.60;42.70;;;;;;1488766;78;1938;-72
2022/02/16 05:20:01;;;;;;;;;;;24.60;42.60;;;;;;1493552;78;679;-72
2022/02/16 05:22:02;;;;;;;;;;;24.60;42.60;;;;;;1494592;79;688;-73
2022/02/16 05:24:07;;;;;;;;;;;24.70;42.70;;;;;;1494456;79;719;-74
2022/02/16 05:26:08;;;;;;;;;;;24.70;42.80;;;;;;1493973;79;1566;-70
2022/02/16 05:28:10;;;;;;;;;;;24.70;42.80;;;;;;1493733;78;699;-71
2022/02/16 05:30:13;;;;;;;;;;;24.60;42.70;;;;;;1494532;79;719;-72
2022/02/16 05:32:15;;;;;;;;;;;24.70;42.80;;;;;;1494214;79;1125;-72
2022/02/16 05:34:17;;;;;;;;;;;24.70;42.80;;;;;;1494560;79;738;-71
2022/02/16 05:36:19;;;;;;;;;;;24.60;42.80;;;;;;1494095;78;722;-70
2022/02/16 05:38:20;;;;;;;;;;;24.70;42.90;;;;;;1494428;79;1946;-71
2022/02/16 05:40:22;;;;;;;;;;;24.60;42.80;;;;;;1494526;79;736;-71
2022/02/16 05:42:24;;;;;;;;;;;24.60;42.80;;;;;;1494340;79;1136;-72
2022/02/16 05:44:26;;;;;;;;;;;24.60;42.80;;;;;;1493837;78;722;-72
2022/02/16 05:46:28;;;;;;;;;;;24.60;42.80;;;;;;1494441;79;733;-73
2022/02/16 05:48:30;;;;;;;;;;;24.60;42.80;;;;;;1494203;79;733;-70
2022/02/16 05:50:32;;;;;;;;;;;24.60;42.70;;;;;;1493759;78;730;-69
2022/02/16 05:52:34;;;;;;;;;;;24.60;42.80;;;;;;1494506;79;1132;-69
2022/02/16 05:54:35;;;;;;;;;;;24.60;42.90;;;;;;1494151;79;794;-69
2022/02/16 05:56:38;;;;;;;;;;;24.70;42.90;;;;;;1494410;79;683;-70
2022/02/16 05:58:39;;;;;;;;;;;24.80;42.60;;;;;;1493613;78;1908;-69
2022/02/16 06:00:41;;;;;;;;;;;24.80;42.50;;;;;;1494329;79;796;-68
2022/02/16 06:02:43;;;;;;;;;;;24.80;42.30;;;;;;1494384;79;1135;-69
2022/02/16 06:04:45;;;;;;;;;;;24.80;42.20;;;;;;1494373;79;731;-70
2022/02/16 06:06:47;;;;;;;;;;;24.80;42.10;;;;;;1494322;79;785;-67
2022/02/16 06:08:49;;;;;;;;;;;24.80;42.10;;;;;;1481396;78;703;-67
2022/02/16 06:10:52;;;;;;;;;;;24.80;42.20;;;;;;1479416;79;854;-69
2022/02/16 06:12:54;;;;;;;;;;;24.80;42.20;;;;;;1469097;81;1158;-68
2022/02/16 06:14:56;;;;;;;;;;;24.70;42.30;;;;;;1469261;81;629;-77
2022/02/16 06:16:58;;;;;;;;;;;24.80;42.40;;;;;;1480911;78;1084;-72
2022/02/16 06:19:00;;;;;;;;;;;24.70;42.60;;;;;;1494536;78;1930;-74
2022/02/16 06:21:02;;;;;;;;;;;24.70;42.60;;;;;;1494095;79;818;-69
2022/02/16 06:23:04;;;;;;;;;;;24.80;42.60;;;;;;1493723;78;1140;-73
2022/02/16 06:25:06;;;;;;;;;;;24.80;42.60;;;;;;1494658;79;750;-67
2022/02/16 06:27:08;;;;;;;;;;;24.70;42.60;;;;;;1494484;79;727;-68
2022/02/16 06:29:10;;;;;;;;;;;24.70;42.70;;;;;;1494619;79;726;-68
2022/02/16 06:31:12;;;;;;;;;;;24.70;42.80;;;;;;1494610;79;723;-70
2022/02/16 06:33:14;;;;;;;;;;;24.70;42.90;;;;;;1493694;78;1151;-74
2022/02/16 06:35:15;;;;;;;;;;;24.70;42.70;;;;;;1492390;79;689;-72
2022/02/16 06:37:17;;;;;;;;;;;24.80;42.60;;;;;;1470570;79;797;-72
2022/02/16 06:39:19;;;;;;;;;;;24.80;42.40;;;;;;1470335;81;1942;-72
2022/02/16 06:41:21;;;;;;;;;;;24.90;42.40;;;;;;1486979;78;753;-71
2022/02/16 06:43:23;;;;;;;;;;;24.90;42.30;;;;;;1494659;79;1077;-72
2022/02/16 06:45:25;;;;;;;;;;;24.90;42.20;;;;;;1494598;79;647;-71
2022/02/16 06:47:27;;;;;;;;;;;25.00;42.10;;;;;;1494632;79;669;-71
2022/02/16 06:49:29;;;;;;;;;;;25.00;42.10;;;;;;1493611;78;607;-72
2022/02/16 06:51:31;;;;;;;;;;;24.90;41.90;;;;;;1494816;79;708;-76
2022/02/16 06:53:33;;;;;;;;;;;24.90;41.90;;;;;;1494348;79;1152;-72
2022/02/16 06:55:35;;;;;;;;;;;24.90;41.80;;;;;;1470118;79;785;-74
2022/02/16 06:57:37;;;;;;;;;;;24.80;41.80;;;;;;1489177;79;727;-73
2022/02/16 06:59:39;;;;;;;;;;;24.90;41.80;;;;;;1493662;78;1938;-71
2022/02/16 07:01:41;;;;;;;;;;;24.80;41.70;;;;;;1482609;79;754;-73
2022/02/16 07:03:44;;;;;;;;;;;24.90;41.70;;;;;;1470384;81;1164;-73
2022/02/16 07:05:46;;;;;;;;;;;24.90;41.70;;;;;;1470275;81;736;-72
2022/02/16 07:07:48;;;;;;;;;;;24.90;41.70;;;;;;1483666;79;675;-72
2022/02/16 07:09:49;;;;;;;;;;;24.80;41.60;;;;;;1493863;78;732;-73
2022/02/16 07:11:52;;;;;;;;;;;24.90;41.60;;;;;;1490039;78;771;-71
2022/02/16 07:13:54;;;;;;;;;;;24.90;41.60;;;;;;1491308;79;1098;-71
2022/02/16 07:15:56;;;;;;;;;;;24.90;41.60;;;;;;1485437;79;804;-73
2022/02/16 07:17:58;;;;;;;;;;;24.80;41.50;;;;;;1493763;78;793;-73
2022/02/16 07:20:00;;;;;;;;;;;24.80;41.50;;;;;;1493793;78;1902;-71
2022/02/16 07:22:02;;;;;;;;;;;24.80;41.50;;;;;;1494744;79;735;-72
2022/02/16 07:24:04;;;;;;;;;;;24.80;41.50;;;;;;1494439;79;756;-72
2022/02/16 07:26:06;;;;;;;;;;;24.80;41.50;;;;;;1494547;79;722;-71
2022/02/16 07:28:10;;;;;;;;;;;24.80;41.50;;;;;;1494451;79;780;-72
2022/02/16 07:30:12;;;;;;;;;;;24.90;41.50;;;;;;1493661;78;1468;-72
2022/02/16 07:32:14;;;;;;;;;;;24.90;41.50;;;;;;1494442;79;1168;-71
2022/02/16 07:34:19;;;;;;;;;;;24.80;41.40;;;;;;1494356;79;704;-72
2022/02/16 07:36:19;;;;;;;;;;;24.80;41.40;;;;;;1478975;79;1656;-73
2022/02/16 07:38:21;;;;;;;;;;;24.80;41.30;;;;;;1473246;78;757;-71
2022/02/16 07:40:23;;;;;;;;;;;24.80;41.30;;;;;;1490828;78;1938;-71
2022/02/16 07:42:25;;;;;;;;;;;24.80;41.30;;;;;;1494304;79;1232;-72
2022/02/16 07:44:27;;;;;;;;;;;24.80;41.30;;;;;;1489355;79;834;-71
2022/02/16 07:46:28;;;;;;;;;;;24.90;41.40;;;;;;1493672;79;730;-71
2022/02/16 07:48:30;;;;;;;;;;;24.90;41.30;;;;;;1480072;78;607;-71
2022/02/16 07:50:32;;;;;;;;;;;24.80;41.20;;;;;;1488884;78;670;-73
2022/02/16 07:52:38;;;;;;;;;;;24.80;41.30;;;;;;1494173;79;1164;-72
2022/02/16 07:54:40;;;;;;;;;;;24.80;41.20;;;;;;1489764;79;745;-74
2022/02/16 07:56:42;;;;;;;;;;;24.80;41.20;;;;;;1494131;79;803;-72
2022/02/16 07:58:44;;;;;;;;;;;24.80;41.20;;;;;;1493569;79;786;-71
2022/02/16 08:00:46;;;;;;;;;;;24.90;41.30;;;;;;1480862;79;1919;-72
2022/02/16 08:02:48;;;;;;;;;;;24.90;41.30;;;;;;1492564;79;1162;-72
2022/02/16 08:04:49;;;;;;;;;;;24.80;41.20;;;;;;1493344;78;745;-72
2022/02/16 08:06:51;;;;;;;;;;;24.90;41.20;;;;;;1493819;78;687;-73
2022/02/16 08:08:53;;;;;;;;;;;24.90;41.20;;;;;;1494269;79;1095;-73
2022/02/16 08:10:55;;;;;;;;;;;24.90;41.10;;;;;;1491178;79;739;-71
2022/02/16 08:12:57;;;;;;;;;;;25.00;41.10;;;;;;1489256;79;1192;-72
2022/02/16 08:14:59;;;;;;;;;;;24.90;41.10;;;;;;1493591;78;792;-73
2022/02/16 08:17:01;;;;;;;;;;;24.90;41.10;;;;;;1488401;79;785;-73
2022/02/16 08:19:04;;;;;;;;;;;24.90;41.10;;;;;;1492173;78;1934;-71
2022/02/16 08:21:06;;;;;;;;;;;24.90;41.10;;;;;;1489992;79;748;-72
2022/02/16 08:23:09;;;;;;;;;;;24.90;41.10;;;;;;1494087;79;1102;-72
2022/02/16 08:25:11;;;;;;;;;;;24.90;41.00;;;;;;1489540;79;711;-72
2022/02/16 08:27:13;;;;;;;;;;;24.90;41.00;;;;;;1486779;79;729;-72
2022/02/16 08:29:15;;;;;;;;;;;25.00;41.00;;;;;;1484797;78;848;-73
2022/02/16 08:31:17;;;;;;;;;;;24.90;41.00;;;;;;1481942;79;711;-72
2022/02/16 08:33:19;;;;;;;;;;;24.90;41.00;;;;;;1494239;79;1274;-71
2022/02/16 08:35:21;;;;;;;;;;;25.00;41.00;;;;;;1494315;79;773;-73
2022/02/16 08:37:23;;;;;;;;;;;24.90;41.00;;;;;;1493999;78;791;-73
2022/02/16 08:39:25;;;;;;;;;;;24.90;40.90;;;;;;1494078;79;1970;-71
2022/02/16 08:41:27;;;;;;;;;;;24.90;40.90;;;;;;1494411;79;1101;-71
2022/02/16 08:43:29;;;;;;;;;;;25.00;40.90;;;;;;1487061;79;1179;-71
2022/02/16 08:45:31;;;;;;;;;;;25.00;40.90;;;;;;1493316;78;806;-73
2022/02/16 08:47:33;;;;;;;;;;;24.90;40.90;;;;;;1494344;79;796;-72
2022/02/16 08:49:34;;;;;;;;;;;25.00;40.90;;;;;;1491219;78;715;-73
2022/02/16 08:51:36;;;;;;;;;;;24.90;40.90;;;;;;1494461;79;754;-72
2022/02/16 08:53:38;;;;;;;;;;;24.90;40.90;;;;;;1490164;78;2087;-69
2022/02/16 08:55:40;;;;;;;;;;;24.90;40.80;;;;;;1499161;79;737;-71
2022/02/16 08:57:42;;;;;;;;;;;24.90;40.80;;;;;;1500954;79;739;-70
2022/02/16 08:59:44;;;;;;;;;;;24.90;40.80;;;;;;1500180;78;1942;-70
2022/02/16 09:01:46;;;;;;;;;;;24.90;40.80;;;;;;1500850;79;715;-71
2022/02/16 09:03:47;;;;;;;;;;;24.90;40.80;;;;;;1496852;79;1205;-69
2022/02/16 09:05:50;;;;;;;;;;;24.90;40.80;;;;;;1494813;79;714;-70
2022/02/16 09:07:52;;;;;;;;;;;25.00;40.70;;;;;;1496568;78;733;-69
2022/02/16 09:09:54;;;;;;;;;;;24.90;40.80;;;;;;1500723;79;721;-70
2022/02/16 09:11:56;;;;;;;;;;;25.00;40.70;;;;;;1500790;79;720;-70
2022/02/16 09:13:58;;;;;;;;;;;24.90;40.70;;;;;;1496698;79;1166;-70
2022/02/16 09:16:00;;;;;;;;;;;24.90;40.70;;;;;;1500800;79;684;-70
2022/02/16 09:18:01;;;;;;;;;;;25.00;40.70;;;;;;1500017;78;682;-69
2022/02/16 09:20:04;;;;;;;;;;;24.90;40.80;;;;;;1500122;78;1944;-69
2022/02/16 09:22:06;;;;;;;;;;;25.00;40.70;;;;;;1500899;79;748;-70
2022/02/16 09:24:08;;;;;;;;;;;24.90;40.70;;;;;;1493950;79;1138;-70
2022/02/16 09:26:10;;;;;;;;;;;25.00;40.80;;;;;;1500220;78;731;-69
2022/02/16 09:28:12;;;;;;;;;;;25.00;40.80;;;;;;1500741;79;713;-70
2022/02/16 09:30:14;;;;;;;;;;;25.00;40.70;;;;;;1500786;79;732;-69
2022/02/16 09:32:16;;;;;;;;;;;24.90;40.70;;;;;;1499099;79;697;-70
2022/02/16 09:34:18;;;;;;;;;;;24.90;40.70;;;;;;1499976;78;1090;-70
2022/02/16 09:36:20;;;;;;;;;;;24.90;40.70;;;;;;1500152;79;743;-69
2022/02/16 09:38:22;;;;;;;;;;;24.90;40.70;;;;;;1500789;79;830;-70
2022/02/16 09:40:24;;;;;;;;;;;24.90;40.70;;;;;;1500642;79;1957;-70
2022/02/16 09:42:27;;;;;;;;;;;25.00;40.70;;;;;;1500436;78;725;-71
2022/02/16 09:44:34;;;;;;;;;;;25.00;40.70;;;;;;1498951;79;1169;-69
2022/02/16 09:46:35;;;;;;;;;;;25.00;40.60;;;;;;1500411;78;707;-71
2022/02/16 09:48:37;;;;;;;;;;;24.90;40.60;;;;;;1500550;79;794;-67
2022/02/16 09:50:39;;;;;;;;;;;25.00;40.60;;;;;;1471416;79;1038;-68
2022/02/16 09:52:42;;;;;;;;;;;24.90;40.70;;;;;;1502940;78;1102;-66
2022/02/16 09:54:44;;;;;;;;;;;25.00;40.70;;;;;;1500161;78;772;-69
2022/02/16 09:56:46;;;;;;;;;;;24.90;40.80;;;;;;1503049;78;751;-68
2022/02/16 09:58:48;;;;;;;;;;;24.90;40.80;;;;;;1503919;78;738;-69
2022/02/16 10:01:03;;;;;;;;;;;24.80;40.80;;;;;;1504058;78;1947;-68
2022/02/16 10:03:12;;;;;;;;;;;24.80;40.80;;;;;;1501873;78;1190;-68
2022/02/16 10:05:14;;;;;;;;;;;24.80;40.70;;;;;;1505158;78;757;-68
2022/02/16 10:07:23;;;;;;;;;;;24.80;40.90;;;;;;1500096;78;756;-70
2022/02/16 10:09:25;;;;;;;;;;;24.80;40.80;;;;;;1507451;78;721;-70
2022/02/16 10:11:27;;;;;;;;;;;24.90;41.00;;;;;;1502720;78;904;-69
2022/02/16 10:13:29;;;;;;;;;;;24.90;41.00;;;;;;1504117;78;1137;-69
2022/02/16 10:15:33;;;;;;;;;;;24.80;40.90;;;;;;1503929;78;649;-70
2022/02/16 10:17:35;;;;;;;;;;;24.80;40.90;;;;;;1504451;78;767;-68
2022/02/16 10:19:47;;;;;;;;;;;24.80;40.90;;;;;;1503489;78;754;-69
2022/02/16 10:22:02;;;;;;;;;;;24.80;40.90;;;;;;1504526;78;653;-68
2022/02/16 10:24:04;;;;;;;;;;;24.80;40.90;;;;;;1511560;78;1141;-70
2022/02/16 10:26:06;;;;;;;;;;;24.80;40.90;;;;;;1509885;78;734;-70
2022/02/16 10:28:15;;;;;;;;;;;24.80;41.00;;;;;;1506050;78;727;-71
2022/02/16 10:30:17;;;;;;;;;;;24.90;41.00;;;;;;1520152;78;907;-69
2022/02/16 10:32:20;;;;;;;;;;;24.90;40.80;;;;;;1500841;78;700;-68
2022/02/16 10:34:22;;;;;;;;;;;24.80;40.50;;;;;;1508544;78;1702;-70
2022/02/16 10:36:25;;;;;;;;;;;24.90;40.50;;;;;;1497927;78;722;-68
2022/02/16 10:38:27;;;;;;;;;;;24.80;40.40;;;;;;1494528;78;692;-68
2022/02/16 10:40:29;;;;;;;;;;;24.80;40.30;;;;;;1499045;78;1923;-68
2022/02/16 10:42:31;;;;;;;;;;;24.80;40.20;;;;;;1498918;79;809;-76
2022/02/16 10:44:34;;;;;;;;;;;24.80;40.20;;;;;;1494165;78;1067;-71
2022/02/16 10:46:37;;;;;;;;;;;24.60;40.00;;;;;;1499938;78;622;-69
2022/02/16 10:48:39;;;;;;;;;;;24.60;39.80;;;;;;1500782;79;757;-69
2022/02/16 10:50:45;;;;;;;;;;;24.70;40.00;;;;;;1500529;78;720;-70
2022/02/16 10:52:55;;;;;;;;;;;24.60;39.70;;;;;;1490314;78;1152;-71
2022/02/16 10:55:02;;;;;;;;;;;24.50;39.50;;;;;;1494969;79;1775;-69
2022/02/16 10:57:01;;;;;;;;;;;24.50;39.30;;;;;;1499895;78;1486;-69
2022/02/16 10:59:03;;;;;;;;;;;24.40;39.20;;;;;;1495061;78;930;-68
2022/02/16 11:01:05;;;;;;;;;;;24.50;39.20;;;;;;1480736;79;1941;-69
2022/02/16 11:03:07;;;;;;;;;;;24.50;39.30;;;;;;1495263;79;1162;-70
2022/02/16 11:05:09;;;;;;;;;;;24.40;39.10;;;;;;1488053;78;793;-69
2022/02/16 11:07:11;;;;;;;;;;;24.30;39.00;;;;;;1494805;78;789;-70
2022/02/16 11:09:23;;;;;;;;;;;24.30;38.90;;;;;;1495837;78;705;-70
2022/02/16 11:11:27;;;;;;;;;;;24.30;38.90;;;;;;1501053;79;720;-70
2022/02/16 11:13:29;;;;;;;;;;;24.30;39.00;;;;;;1493116;79;1160;-70
2022/02/16 11:15:31;;;;;;;;;;;24.20;38.70;;;;;;1500877;79;705;-71
2022/02/16 11:17:33;;;;;;;;;;;24.20;38.70;;;;;;1487390;78;727;-70
2022/02/16 11:19:35;;;;;;;;;;;24.20;38.70;;;;;;1497301;78;785;-70
2022/02/16 11:21:41;;;;;;;;;;;24.20;38.70;;;;;;1500902;79;1949;-71
2022/02/16 11:23:44;;;;;;;;;;;24.10;38.60;;;;;;1493353;78;1587;-68
2022/02/16 11:25:47;;;;;;;;;;;24.20;38.10;;;;;;1499606;79;714;-69
2022/02/16 11:27:52;;;;;;;;;;;24.20;38.60;;;;;;1492379;79;695;-68
2022/02/16 11:29:55;;;;;;;;;;;24.20;38.60;;;;;;1490486;78;575;-69
2022/02/16 11:32:04;;;;;;;;;;;24.10;38.50;;;;;;1497350;78;759;-70
2022/02/16 11:34:13;;;;;;;;;;;24.10;38.60;;;;;;1500780;79;1154;-70
2022/02/16 11:36:15;;;;;;;;;;;24.00;38.50;;;;;;1491380;78;710;-70
2022/02/16 11:38:19;;;;;;;;;;;24.00;38.30;;;;;;1495666;79;787;-70
2022/02/16 11:40:22;;;;;;;;;;;24.10;38.40;;;;;;1499337;78;1900;-70
2022/02/16 11:42:42;;;;;;;;;;;24.00;38.50;;;;;;1492554;79;1190;-69
2022/02/16 11:44:55;;;;;;;;;;;24.10;38.40;;;;;;1489276;78;720;-70
2022/02/16 11:46:59;;;;;;;;;;;24.10;38.20;;;;;;1497376;78;690;-69
2022/02/16 11:49:00;;;;;;;;;;;24.10;38.30;;;;;;1492406;78;1604;-68
2022/02/16 11:51:20;;;;;;;;;;;24.00;38.20;;;;;;1492373;78;793;-67
2022/02/16 11:53:24;;;;;;;;;;;24.00;38.10;;;;;;1500932;78;1156;-67
2022/02/16 11:55:27;;;;;;;;;;;24.00;38.20;;;;;;1495806;79;1690;-68
2022/02/16 11:57:43;;;;;;;;;;;24.00;38.10;;;;;;1501010;78;705;-68
2022/02/16 11:59:55;;;;;;;;;;;23.90;38.20;;;;;;1498744;78;777;-66
2022/02/16 12:02:07;;;;;;;;;;;23.90;37.60;;;;;;1499517;78;1937;-67
2022/02/16 12:04:09;;;;;;;;;;;24.00;38.10;;;;;;1494760;79;1150;-69
2022/02/16 12:06:13;;;;;;;;;;;24.00;38.10;;;;;;1488676;78;732;-68
2022/02/16 12:08:16;;;;;;;;;;;24.00;38.00;;;;;;1500119;78;683;-68
2022/02/16 12:10:18;;;;;;;;;;;23.90;37.90;;;;;;1500855;79;725;-67